sensor_id;sensor_type;location;lat;lon;timestamp;P1;durP1;ratioP1;P2;durP2;ratioP2
59306;SDS011;47983;53.016;-2.260;2023-05-07T00:01:45;23.02;;;10.85;;
59306;SDS011;47983;53.016;-2.260;2023-05-07T00:04:13;24.85;;;10.95;;
59306;SDS011;47983;53.016;-2.260;2023-05-07T00:06:41;29.15;;;12.02;;
59306;SDS011;47983;53.016;-2.260;2023-05-07T00:09:08;26.42;;;12.30;;
59306;SDS011;47983;53.016;-2.260;2023-05-07T00:11:37;35.95;;;13.60;;
59306;SDS011;47983;53.016;-2.260;2023-05-07T00:14:05;30.15;;;13.75;;
59306;SDS011;47983;53.016;-2.260;2023-05-07T00:16:33;26.70;;;11.57;;
59306;SDS011;47983;53.016;-2.260;2023-05-07T00:19:01;28.13;;;12.90;;
59306;SDS011;47983;53.016;-2.260;2023-05-07T00:21:29;34.15;;;14.00;;
59306;SDS011;47983;53.016;-2.260;2023-05-07T00:23:57;34.90;;;14.30;;
59306;SDS011;47983;53.016;-2.260;2023-05-07T00:26:25;42.03;;;17.33;;
59306;SDS011;47983;53.016;-2.260;2023-05-07T00:28:53;43.47;;;16.45;;
59306;SDS011;47983;53.016;-2.260;2023-05-07T00:31:23;52.92;;;17.40;;
59306;SDS011;47983;53.016;-2.260;2023-05-07T00:33:51;38.17;;;17.48;;
59306;SDS011;47983;53.016;-2.260;2023-05-07T00:36:19;49.15;;;18.65;;
59306;SDS011;47983;53.016;-2.260;2023-05-07T00:38:47;45.83;;;18.85;;
59306;SDS011;47983;53.016;-2.260;2023-05-07T00:41:15;43.83;;;17.67;;
59306;SDS011;47983;53.016;-2.260;2023-05-07T00:43:42;43.17;;;17.02;;
59306;SDS011;47983;53.016;-2.260;2023-05-07T00:46:10;42.95;;;17.48;;
59306;SDS011;47983;53.016;-2.260;2023-05-07T00:48:41;42.95;;;18.88;;
59306;SDS011;47983;53.016;-2.260;2023-05-07T00:51:09;46.47;;;19.33;;
59306;SDS011;47983;53.016;-2.260;2023-05-07T00:53:39;49.55;;;17.90;;
59306;SDS011;47983;53.016;-2.260;2023-05-07T00:56:07;46.90;;;18.58;;
59306;SDS011;47983;53.016;-2.260;2023-05-07T00:58:36;46.50;;;18.38;;
59306;SDS011;47983;53.016;-2.260;2023-05-07T01:01:05;42.35;;;17.50;;
59306;SDS011;47983;53.016;-2.260;2023-05-07T01:03:35;46.90;;;18.90;;
59306;SDS011;47983;53.016;-2.260;2023-05-07T01:06:04;45.95;;;17.95;;
59306;SDS011;47983;53.016;-2.260;2023-05-07T01:08:35;46.65;;;18.23;;
59306;SDS011;47983;53.016;-2.260;2023-05-07T01:11:03;40.65;;;18.10;;
59306;SDS011;47983;53.016;-2.260;2023-05-07T01:13:31;40.78;;;18.40;;
59306;SDS011;47983;53.016;-2.260;2023-05-07T01:15:59;41.55;;;17.08;;
59306;SDS011;47983;53.016;-2.260;2023-05-07T01:18:27;39.67;;;17.70;;
59306;SDS011;47983;53.016;-2.260;2023-05-07T01:20:57;33.20;;;15.82;;
59306;SDS011;47983;53.016;-2.260;2023-05-07T01:23:28;36.95;;;17.08;;
59306;SDS011;47983;53.016;-2.260;2023-05-07T01:25:57;34.72;;;16.85;;
59306;SDS011;47983;53.016;-2.260;2023-05-07T01:28:27;35.53;;;14.90;;
59306;SDS011;47983;53.016;-2.260;2023-05-07T01:31:01;31.70;;;15.50;;
59306;SDS011;47983;53.016;-2.260;2023-05-07T01:33:33;31.67;;;15.27;;
59306;SDS011;47983;53.016;-2.260;2023-05-07T01:36:03;32.10;;;15.13;;
59306;SDS011;47983;53.016;-2.260;2023-05-07T01:38:34;36.28;;;16.15;;
59306;SDS011;47983;53.016;-2.260;2023-05-07T01:41:07;32.15;;;15.77;;
59306;SDS011;47983;53.016;-2.260;2023-05-07T01:43:36;34.53;;;16.25;;
59306;SDS011;47983;53.016;-2.260;2023-05-07T01:46:03;40.53;;;16.48;;
59306;SDS011;47983;53.016;-2.260;2023-05-07T01:48:32;35.95;;;16.60;;
59306;SDS011;47983;53.016;-2.260;2023-05-07T01:51:02;31.20;;;16.40;;
59306;SDS011;47983;53.016;-2.260;2023-05-07T01:53:35;28.45;;;14.77;;
59306;SDS011;47983;53.016;-2.260;2023-05-07T01:56:06;34.47;;;14.93;;
59306;SDS011;47983;53.016;-2.260;2023-05-07T01:58:37;30.92;;;15.45;;
59306;SDS011;47983;53.016;-2.260;2023-05-07T02:01:05;28.60;;;14.98;;
59306;SDS011;47983;53.016;-2.260;2023-05-07T02:03:33;29.73;;;14.82;;
59306;SDS011;47983;53.016;-2.260;2023-05-07T02:06:08;30.13;;;15.95;;
59306;SDS011;47983;53.016;-2.260;2023-05-07T02:08:38;32.13;;;16.90;;
59306;SDS011;47983;53.016;-2.260;2023-05-07T02:11:06;33.33;;;15.18;;
59306;SDS011;47983;53.016;-2.260;2023-05-07T02:13:35;37.35;;;16.15;;
59306;SDS011;47983;53.016;-2.260;2023-05-07T02:16:05;35.60;;;16.90;;
59306;SDS011;47983;53.016;-2.260;2023-05-07T02:18:34;41.22;;;17.20;;
59306;SDS011;47983;53.016;-2.260;2023-05-07T02:21:03;38.70;;;16.65;;
59306;SDS011;47983;53.016;-2.260;2023-05-07T02:23:30;37.45;;;17.95;;
59306;SDS011;47983;53.016;-2.260;2023-05-07T02:25:58;38.28;;;17.33;;
59306;SDS011;47983;53.016;-2.260;2023-05-07T02:28:26;40.80;;;19.70;;
59306;SDS011;47983;53.016;-2.260;2023-05-07T02:30:58;37.10;;;17.10;;
59306;SDS011;47983;53.016;-2.260;2023-05-07T02:33:28;40.92;;;18.30;;
59306;SDS011;47983;53.016;-2.260;2023-05-07T02:36:04;39.88;;;18.67;;
59306;SDS011;47983;53.016;-2.260;2023-05-07T02:38:43;38.55;;;18.33;;
59306;SDS011;47983;53.016;-2.260;2023-05-07T02:41:11;42.97;;;19.25;;
59306;SDS011;47983;53.016;-2.260;2023-05-07T02:43:39;46.33;;;20.85;;
59306;SDS011;47983;53.016;-2.260;2023-05-07T02:46:07;42.53;;;19.23;;
59306;SDS011;47983;53.016;-2.260;2023-05-07T02:48:40;41.67;;;18.83;;
59306;SDS011;47983;53.016;-2.260;2023-05-07T02:51:08;45.65;;;21.77;;
59306;SDS011;47983;53.016;-2.260;2023-05-07T02:53:37;54.15;;;19.88;;
59306;SDS011;47983;53.016;-2.260;2023-05-07T02:56:05;47.20;;;21.48;;
59306;SDS011;47983;53.016;-2.260;2023-05-07T02:58:36;51.63;;;21.90;;
59306;SDS011;47983;53.016;-2.260;2023-05-07T03:01:06;52.90;;;21.65;;
59306;SDS011;47983;53.016;-2.260;2023-05-07T03:03:39;45.50;;;20.63;;
59306;SDS011;47983;53.016;-2.260;2023-05-07T03:06:07;40.88;;;19.70;;
59306;SDS011;47983;53.016;-2.260;2023-05-07T03:08:34;42.47;;;20.17;;
59306;SDS011;47983;53.016;-2.260;2023-05-07T03:11:06;40.88;;;18.63;;
59306;SDS011;47983;53.016;-2.260;2023-05-07T03:13:34;41.90;;;18.30;;
59306;SDS011;47983;53.016;-2.260;2023-05-07T03:16:02;49.78;;;19.85;;
59306;SDS011;47983;53.016;-2.260;2023-05-07T03:18:30;37.45;;;18.08;;
59306;SDS011;47983;53.016;-2.260;2023-05-07T03:20:58;40.67;;;17.35;;
59306;SDS011;47983;53.016;-2.260;2023-05-07T03:23:26;30.73;;;14.13;;
59306;SDS011;47983;53.016;-2.260;2023-05-07T03:25:54;29.92;;;12.82;;
59306;SDS011;47983;53.016;-2.260;2023-05-07T03:28:22;33.50;;;14.15;;
59306;SDS011;47983;53.016;-2.260;2023-05-07T03:30:55;28.38;;;13.18;;
59306;SDS011;47983;53.016;-2.260;2023-05-07T03:33:24;26.63;;;12.65;;
59306;SDS011;47983;53.016;-2.260;2023-05-07T03:35:53;28.92;;;12.27;;
59306;SDS011;47983;53.016;-2.260;2023-05-07T03:38:23;28.10;;;12.25;;
59306;SDS011;47983;53.016;-2.260;2023-05-07T03:40:51;24.30;;;11.30;;
59306;SDS011;47983;53.016;-2.260;2023-05-07T03:43:19;27.15;;;12.00;;
59306;SDS011;47983;53.016;-2.260;2023-05-07T03:45:54;31.27;;;10.40;;
59306;SDS011;47983;53.016;-2.260;2023-05-07T03:48:25;30.08;;;11.88;;
59306;SDS011;47983;53.016;-2.260;2023-05-07T03:50:55;25.55;;;11.23;;
59306;SDS011;47983;53.016;-2.260;2023-05-07T03:53:27;21.88;;;11.38;;
59306;SDS011;47983;53.016;-2.260;2023-05-07T03:55:55;26.00;;;10.73;;
59306;SDS011;47983;53.016;-2.260;2023-05-07T03:58:22;24.73;;;11.50;;
59306;SDS011;47983;53.016;-2.260;2023-05-07T04:00:52;26.20;;;10.63;;
59306;SDS011;47983;53.016;-2.260;2023-05-07T04:03:26;26.13;;;11.00;;
59306;SDS011;47983;53.016;-2.260;2023-05-07T04:05:57;22.92;;;10.85;;
59306;SDS011;47983;53.016;-2.260;2023-05-07T04:08:25;28.95;;;11.05;;
59306;SDS011;47983;53.016;-2.260;2023-05-07T04:10:54;23.95;;;10.88;;
59306;SDS011;47983;53.016;-2.260;2023-05-07T04:13:25;25.83;;;10.35;;
59306;SDS011;47983;53.016;-2.260;2023-05-07T04:15:54;26.15;;;10.40;;
59306;SDS011;47983;53.016;-2.260;2023-05-07T04:18:24;27.60;;;10.45;;
59306;SDS011;47983;53.016;-2.260;2023-05-07T04:20:52;22.85;;;10.45;;
59306;SDS011;47983;53.016;-2.260;2023-05-07T04:23:20;24.80;;;10.88;;
59306;SDS011;47983;53.016;-2.260;2023-05-07T04:25:48;23.98;;;11.10;;
59306;SDS011;47983;53.016;-2.260;2023-05-07T04:28:24;28.50;;;10.00;;
59306;SDS011;47983;53.016;-2.260;2023-05-07T04:30:53;22.23;;;10.52;;
59306;SDS011;47983;53.016;-2.260;2023-05-07T04:33:21;24.55;;;9.40;;
59306;SDS011;47983;53.016;-2.260;2023-05-07T04:35:50;20.73;;;9.88;;
59306;SDS011;47983;53.016;-2.260;2023-05-07T04:38:18;26.80;;;9.93;;
59306;SDS011;47983;53.016;-2.260;2023-05-07T04:40:48;28.70;;;10.85;;
59306;SDS011;47983;53.016;-2.260;2023-05-07T04:43:20;27.75;;;9.80;;
59306;SDS011;47983;53.016;-2.260;2023-05-07T04:45:50;25.58;;;10.45;;
59306;SDS011;47983;53.016;-2.260;2023-05-07T04:48:21;25.05;;;10.57;;
59306;SDS011;47983;53.016;-2.260;2023-05-07T04:50:51;29.48;;;10.90;;
59306;SDS011;47983;53.016;-2.260;2023-05-07T04:53:20;28.55;;;10.27;;
59306;SDS011;47983;53.016;-2.260;2023-05-07T04:55:54;27.60;;;11.02;;
59306;SDS011;47983;53.016;-2.260;2023-05-07T04:58:26;31.10;;;10.77;;
59306;SDS011;47983;53.016;-2.260;2023-05-07T05:00:54;30.33;;;10.93;;
59306;SDS011;47983;53.016;-2.260;2023-05-07T05:03:23;30.92;;;11.68;;
59306;SDS011;47983;53.016;-2.260;2023-05-07T05:05:52;31.73;;;11.38;;
59306;SDS011;47983;53.016;-2.260;2023-05-07T05:08:22;29.98;;;12.27;;
59306;SDS011;47983;53.016;-2.260;2023-05-07T05:10:50;31.77;;;11.50;;
59306;SDS011;47983;53.016;-2.260;2023-05-07T05:13:18;27.50;;;11.75;;
59306;SDS011;47983;53.016;-2.260;2023-05-07T05:15:46;24.65;;;10.82;;
59306;SDS011;47983;53.016;-2.260;2023-05-07T05:18:14;26.73;;;11.50;;
59306;SDS011;47983;53.016;-2.260;2023-05-07T05:20:42;24.10;;;10.50;;
59306;SDS011;47983;53.016;-2.260;2023-05-07T05:23:11;26.92;;;10.75;;
59306;SDS011;47983;53.016;-2.260;2023-05-07T05:25:39;29.00;;;11.18;;
59306;SDS011;47983;53.016;-2.260;2023-05-07T05:28:11;27.42;;;10.75;;
59306;SDS011;47983;53.016;-2.260;2023-05-07T05:30:39;24.20;;;10.02;;
59306;SDS011;47983;53.016;-2.260;2023-05-07T05:33:08;26.02;;;9.85;;
59306;SDS011;47983;53.016;-2.260;2023-05-07T05:35:36;33.33;;;11.13;;
59306;SDS011;47983;53.016;-2.260;2023-05-07T05:38:13;21.50;;;10.13;;
59306;SDS011;47983;53.016;-2.260;2023-05-07T05:40:41;24.13;;;10.15;;
59306;SDS011;47983;53.016;-2.260;2023-05-07T05:43:09;23.70;;;10.88;;
59306;SDS011;47983;53.016;-2.260;2023-05-07T05:45:38;20.02;;;9.52;;
59306;SDS011;47983;53.016;-2.260;2023-05-07T05:48:08;26.58;;;10.10;;
59306;SDS011;47983;53.016;-2.260;2023-05-07T05:50:37;22.05;;;9.65;;
59306;SDS011;47983;53.016;-2.260;2023-05-07T05:53:06;18.20;;;8.60;;
59306;SDS011;47983;53.016;-2.260;2023-05-07T05:55:34;24.52;;;8.85;;
59306;SDS011;47983;53.016;-2.260;2023-05-07T05:58:02;17.08;;;8.15;;
59306;SDS011;47983;53.016;-2.260;2023-05-07T06:00:34;29.65;;;9.90;;
59306;SDS011;47983;53.016;-2.260;2023-05-07T06:03:03;18.55;;;8.35;;
59306;SDS011;47983;53.016;-2.260;2023-05-07T06:05:32;19.02;;;7.88;;
59306;SDS011;47983;53.016;-2.260;2023-05-07T06:08:02;25.73;;;8.52;;
59306;SDS011;47983;53.016;-2.260;2023-05-07T06:10:35;20.73;;;8.18;;
59306;SDS011;47983;53.016;-2.260;2023-05-07T06:13:06;26.63;;;9.07;;
59306;SDS011;47983;53.016;-2.260;2023-05-07T06:15:36;20.73;;;7.07;;
59306;SDS011;47983;53.016;-2.260;2023-05-07T06:18:09;16.75;;;7.85;;
59306;SDS011;47983;53.016;-2.260;2023-05-07T06:20:40;19.70;;;7.95;;
59306;SDS011;47983;53.016;-2.260;2023-05-07T06:23:14;17.65;;;7.72;;
59306;SDS011;47983;53.016;-2.260;2023-05-07T06:25:50;20.65;;;7.75;;
59306;SDS011;47983;53.016;-2.260;2023-05-07T06:28:22;14.70;;;7.35;;
59306;SDS011;47983;53.016;-2.260;2023-05-07T06:30:51;18.08;;;6.57;;
59306;SDS011;47983;53.016;-2.260;2023-05-07T06:33:19;12.10;;;5.65;;
59306;SDS011;47983;53.016;-2.260;2023-05-07T06:35:46;12.32;;;5.43;;
59306;SDS011;47983;53.016;-2.260;2023-05-07T06:38:14;14.48;;;5.75;;
59306;SDS011;47983;53.016;-2.260;2023-05-07T06:40:43;13.65;;;5.47;;
59306;SDS011;47983;53.016;-2.260;2023-05-07T06:43:11;11.90;;;5.50;;
59306;SDS011;47983;53.016;-2.260;2023-05-07T06:45:47;17.88;;;5.43;;
59306;SDS011;47983;53.016;-2.260;2023-05-07T06:48:15;12.63;;;3.85;;
59306;SDS011;47983;53.016;-2.260;2023-05-07T06:50:50;9.77;;;4.40;;
59306;SDS011;47983;53.016;-2.260;2023-05-07T06:53:18;8.52;;;4.10;;
59306;SDS011;47983;53.016;-2.260;2023-05-07T06:55:46;12.70;;;4.03;;
59306;SDS011;47983;53.016;-2.260;2023-05-07T06:58:16;8.25;;;3.47;;
59306;SDS011;47983;53.016;-2.260;2023-05-07T07:00:43;12.95;;;4.13;;
59306;SDS011;47983;53.016;-2.260;2023-05-07T07:03:13;9.77;;;3.43;;
59306;SDS011;47983;53.016;-2.260;2023-05-07T07:05:41;14.77;;;3.75;;
59306;SDS011;47983;53.016;-2.260;2023-05-07T07:08:09;9.23;;;3.50;;
59306;SDS011;47983;53.016;-2.260;2023-05-07T07:10:37;14.30;;;3.60;;
59306;SDS011;47983;53.016;-2.260;2023-05-07T07:13:08;9.30;;;4.32;;
59306;SDS011;47983;53.016;-2.260;2023-05-07T07:15:39;10.48;;;4.32;;
59306;SDS011;47983;53.016;-2.260;2023-05-07T07:18:10;12.40;;;3.83;;
59306;SDS011;47983;53.016;-2.260;2023-05-07T07:20:39;10.40;;;3.80;;
59306;SDS011;47983;53.016;-2.260;2023-05-07T07:23:08;18.80;;;4.53;;
59306;SDS011;47983;53.016;-2.260;2023-05-07T07:25:36;12.25;;;3.90;;
59306;SDS011;47983;53.016;-2.260;2023-05-07T07:28:05;14.40;;;3.53;;
59306;SDS011;47983;53.016;-2.260;2023-05-07T07:30:33;10.50;;;3.67;;
59306;SDS011;47983;53.016;-2.260;2023-05-07T07:33:01;22.27;;;4.28;;
59306;SDS011;47983;53.016;-2.260;2023-05-07T07:35:34;10.35;;;3.25;;
59306;SDS011;47983;53.016;-2.260;2023-05-07T07:38:04;8.52;;;3.90;;
59306;SDS011;47983;53.016;-2.260;2023-05-07T07:40:34;10.35;;;4.03;;
59306;SDS011;47983;53.016;-2.260;2023-05-07T07:43:05;13.93;;;4.47;;
59306;SDS011;47983;53.016;-2.260;2023-05-07T07:45:33;8.18;;;3.63;;
59306;SDS011;47983;53.016;-2.260;2023-05-07T07:48:02;12.20;;;4.07;;
59306;SDS011;47983;53.016;-2.260;2023-05-07T07:50:33;13.38;;;4.30;;
59306;SDS011;47983;53.016;-2.260;2023-05-07T07:53:14;11.00;;;3.97;;
59306;SDS011;47983;53.016;-2.260;2023-05-07T07:55:43;12.65;;;3.85;;
59306;SDS011;47983;53.016;-2.260;2023-05-07T07:58:14;10.00;;;3.95;;
59306;SDS011;47983;53.016;-2.260;2023-05-07T08:00:42;9.57;;;3.70;;
59306;SDS011;47983;53.016;-2.260;2023-05-07T08:03:11;10.90;;;4.03;;
59306;SDS011;47983;53.016;-2.260;2023-05-07T08:05:43;10.52;;;4.00;;
59306;SDS011;47983;53.016;-2.260;2023-05-07T08:08:11;9.63;;;3.05;;
59306;SDS011;47983;53.016;-2.260;2023-05-07T08:10:40;7.75;;;3.72;;
59306;SDS011;47983;53.016;-2.260;2023-05-07T08:13:16;11.20;;;3.20;;
59306;SDS011;47983;53.016;-2.260;2023-05-07T08:15:44;14.73;;;4.32;;
59306;SDS011;47983;53.016;-2.260;2023-05-07T08:18:13;8.98;;;2.90;;
59306;SDS011;47983;53.016;-2.260;2023-05-07T08:20:43;11.98;;;3.70;;
59306;SDS011;47983;53.016;-2.260;2023-05-07T08:23:15;8.00;;;2.72;;
59306;SDS011;47983;53.016;-2.260;2023-05-07T08:25:47;10.38;;;3.10;;
59306;SDS011;47983;53.016;-2.260;2023-05-07T08:28:16;7.38;;;2.85;;
59306;SDS011;47983;53.016;-2.260;2023-05-07T08:30:44;11.93;;;2.78;;
59306;SDS011;47983;53.016;-2.260;2023-05-07T08:33:12;9.07;;;2.88;;
59306;SDS011;47983;53.016;-2.260;2023-05-07T08:35:40;5.85;;;2.75;;
59306;SDS011;47983;53.016;-2.260;2023-05-07T08:40:39;5.90;;;2.35;;
59306;SDS011;47983;53.016;-2.260;2023-05-07T08:43:15;10.65;;;3.13;;
59306;SDS011;47983;53.016;-2.260;2023-05-07T08:45:45;5.32;;;2.45;;
59306;SDS011;47983;53.016;-2.260;2023-05-07T08:48:19;9.48;;;3.03;;
59306;SDS011;47983;53.016;-2.260;2023-05-07T08:50:58;17.17;;;3.53;;
59306;SDS011;47983;53.016;-2.260;2023-05-07T08:53:26;10.93;;;3.60;;
59306;SDS011;47983;53.016;-2.260;2023-05-07T08:55:54;10.55;;;3.78;;
59306;SDS011;47983;53.016;-2.260;2023-05-07T08:58:22;10.85;;;3.92;;
59306;SDS011;47983;53.016;-2.260;2023-05-07T09:00:50;11.52;;;3.10;;
59306;SDS011;47983;53.016;-2.260;2023-05-07T09:03:21;8.38;;;3.30;;
59306;SDS011;47983;53.016;-2.260;2023-05-07T09:08:24;5.38;;;2.17;;
59306;SDS011;47983;53.016;-2.260;2023-05-07T09:10:54;9.00;;;2.95;;
59306;SDS011;47983;53.016;-2.260;2023-05-07T09:13:23;11.88;;;3.08;;
59306;SDS011;47983;53.016;-2.260;2023-05-07T09:15:51;7.13;;;3.40;;
59306;SDS011;47983;53.016;-2.260;2023-05-07T09:18:19;6.95;;;2.75;;
59306;SDS011;47983;53.016;-2.260;2023-05-07T09:20:48;9.13;;;2.53;;
59306;SDS011;47983;53.016;-2.260;2023-05-07T09:23:18;7.43;;;2.28;;
59306;SDS011;47983;53.016;-2.260;2023-05-07T09:25:48;10.10;;;2.95;;
59306;SDS011;47983;53.016;-2.260;2023-05-07T09:28:23;9.20;;;2.50;;
59306;SDS011;47983;53.016;-2.260;2023-05-07T09:30:50;8.35;;;2.20;;
59306;SDS011;47983;53.016;-2.260;2023-05-07T09:33:19;7.60;;;2.55;;
59306;SDS011;47983;53.016;-2.260;2023-05-07T09:35:54;6.78;;;1.75;;
59306;SDS011;47983;53.016;-2.260;2023-05-07T09:38:22;9.75;;;2.38;;
59306;SDS011;47983;53.016;-2.260;2023-05-07T09:41:01;4.97;;;2.35;;
59306;SDS011;47983;53.016;-2.260;2023-05-07T09:44:05;5.72;;;2.40;;
59306;SDS011;47983;53.016;-2.260;2023-05-07T09:46:42;10.00;;;2.58;;
59306;SDS011;47983;53.016;-2.260;2023-05-07T09:49:23;7.95;;;2.25;;
59306;SDS011;47983;53.016;-2.260;2023-05-07T09:51:57;6.25;;;2.00;;
59306;SDS011;47983;53.016;-2.260;2023-05-07T09:54:34;5.10;;;2.17;;
59306;SDS011;47983;53.016;-2.260;2023-05-07T09:57:06;6.95;;;2.30;;
59306;SDS011;47983;53.016;-2.260;2023-05-07T09:59:36;3.47;;;1.70;;
59306;SDS011;47983;53.016;-2.260;2023-05-07T10:02:09;5.18;;;1.92;;
59306;SDS011;47983;53.016;-2.260;2023-05-07T10:04:45;4.40;;;1.60;;
59306;SDS011;47983;53.016;-2.260;2023-05-07T10:07:18;6.03;;;2.03;;
59306;SDS011;47983;53.016;-2.260;2023-05-07T10:09:49;6.28;;;1.58;;
59306;SDS011;47983;53.016;-2.260;2023-05-07T10:12:28;5.65;;;2.33;;
59306;SDS011;47983;53.016;-2.260;2023-05-07T10:14:57;4.65;;;1.85;;
59306;SDS011;47983;53.016;-2.260;2023-05-07T10:17:25;6.65;;;2.28;;
59306;SDS011;47983;53.016;-2.260;2023-05-07T10:19:53;5.90;;;1.75;;
59306;SDS011;47983;53.016;-2.260;2023-05-07T10:22:22;6.70;;;1.75;;
59306;SDS011;47983;53.016;-2.260;2023-05-07T10:24:52;4.78;;;1.75;;
59306;SDS011;47983;53.016;-2.260;2023-05-07T10:27:21;6.75;;;2.28;;
59306;SDS011;47983;53.016;-2.260;2023-05-07T10:32:47;7.40;;;2.10;;
59306;SDS011;47983;53.016;-2.260;2023-05-07T10:35:29;4.95;;;1.65;;
59306;SDS011;47983;53.016;-2.260;2023-05-07T10:38:02;4.75;;;1.88;;
59306;SDS011;47983;53.016;-2.260;2023-05-07T10:40:33;7.90;;;2.20;;
59306;SDS011;47983;53.016;-2.260;2023-05-07T10:43:03;6.05;;;2.33;;
59306;SDS011;47983;53.016;-2.260;2023-05-07T10:46:14;8.02;;;2.00;;
59306;SDS011;47983;53.016;-2.260;2023-05-07T10:58:17;3.92;;;1.83;;
59306;SDS011;47983;53.016;-2.260;2023-05-07T11:04:25;6.45;;;1.75;;
59306;SDS011;47983;53.016;-2.260;2023-05-07T11:07:24;8.70;;;2.30;;
59306;SDS011;47983;53.016;-2.260;2023-05-07T11:10:07;5.40;;;1.60;;
59306;SDS011;47983;53.016;-2.260;2023-05-07T11:12:50;5.70;;;1.77;;
59306;SDS011;47983;53.016;-2.260;2023-05-07T11:15:34;4.82;;;1.33;;
59306;SDS011;47983;53.016;-2.260;2023-05-07T11:18:12;9.18;;;1.77;;
59306;SDS011;47983;53.016;-2.260;2023-05-07T11:26:25;2.67;;;1.42;;
59306;SDS011;47983;53.016;-2.260;2023-05-07T11:28:54;3.85;;;1.23;;
59306;SDS011;47983;53.016;-2.260;2023-05-07T11:31:26;2.00;;;1.13;;
59306;SDS011;47983;53.016;-2.260;2023-05-07T11:33:58;3.55;;;1.45;;
59306;SDS011;47983;53.016;-2.260;2023-05-07T11:36:31;2.72;;;1.20;;
59306;SDS011;47983;53.016;-2.260;2023-05-07T11:39:02;5.30;;;1.05;;
59306;SDS011;47983;53.016;-2.260;2023-05-07T11:41:36;4.00;;;1.30;;
59306;SDS011;47983;53.016;-2.260;2023-05-07T11:44:04;2.35;;;1.20;;
59306;SDS011;47983;53.016;-2.260;2023-05-07T11:46:32;2.55;;;1.20;;
59306;SDS011;47983;53.016;-2.260;2023-05-07T11:49:00;3.38;;;1.25;;
59306;SDS011;47983;53.016;-2.260;2023-05-07T11:51:28;3.80;;;1.27;;
59306;SDS011;47983;53.016;-2.260;2023-05-07T11:53:56;2.10;;;1.02;;
59306;SDS011;47983;53.016;-2.260;2023-05-07T11:56:23;4.22;;;1.30;;
59306;SDS011;47983;53.016;-2.260;2023-05-07T11:58:51;5.63;;;1.52;;
59306;SDS011;47983;53.016;-2.260;2023-05-07T12:01:22;3.30;;;1.30;;
59306;SDS011;47983;53.016;-2.260;2023-05-07T12:03:49;7.28;;;1.50;;
59306;SDS011;47983;53.016;-2.260;2023-05-07T12:06:18;4.40;;;2.10;;
59306;SDS011;47983;53.016;-2.260;2023-05-07T12:08:47;4.97;;;1.55;;
59306;SDS011;47983;53.016;-2.260;2023-05-07T12:11:16;2.47;;;1.27;;
59306;SDS011;47983;53.016;-2.260;2023-05-07T12:13:50;2.97;;;1.80;;
59306;SDS011;47983;53.016;-2.260;2023-05-07T12:16:19;3.63;;;1.60;;
59306;SDS011;47983;53.016;-2.260;2023-05-07T12:18:47;2.92;;;1.42;;
59306;SDS011;47983;53.016;-2.260;2023-05-07T12:21:15;5.35;;;2.50;;
59306;SDS011;47983;53.016;-2.260;2023-05-07T12:23:44;1.33;;;1.00;;
59306;SDS011;47983;53.016;-2.260;2023-05-07T12:26:12;3.03;;;1.00;;
59306;SDS011;47983;53.016;-2.260;2023-05-07T12:28:40;3.25;;;1.55;;
59306;SDS011;47983;53.016;-2.260;2023-05-07T12:31:08;3.45;;;1.02;;
59306;SDS011;47983;53.016;-2.260;2023-05-07T12:33:37;4.13;;;1.30;;
59306;SDS011;47983;53.016;-2.260;2023-05-07T12:36:07;1.85;;;1.20;;
59306;SDS011;47983;53.016;-2.260;2023-05-07T12:38:38;3.35;;;1.10;;
59306;SDS011;47983;53.016;-2.260;2023-05-07T12:41:08;4.32;;;1.20;;
59306;SDS011;47983;53.016;-2.260;2023-05-07T12:43:39;3.88;;;1.35;;
59306;SDS011;47983;53.016;-2.260;2023-05-07T12:46:11;3.38;;;0.98;;
59306;SDS011;47983;53.016;-2.260;2023-05-07T12:48:44;3.55;;;1.17;;
59306;SDS011;47983;53.016;-2.260;2023-05-07T12:51:15;3.55;;;1.20;;
59306;SDS011;47983;53.016;-2.260;2023-05-07T12:53:43;6.13;;;1.30;;
59306;SDS011;47983;53.016;-2.260;2023-05-07T12:56:10;2.60;;;1.17;;
59306;SDS011;47983;53.016;-2.260;2023-05-07T12:58:38;5.93;;;1.33;;
59306;SDS011;47983;53.016;-2.260;2023-05-07T13:01:07;3.97;;;1.50;;
59306;SDS011;47983;53.016;-2.260;2023-05-07T13:03:37;2.83;;;1.13;;
59306;SDS011;47983;53.016;-2.260;2023-05-07T13:06:06;5.60;;;1.35;;
59306;SDS011;47983;53.016;-2.260;2023-05-07T13:08:40;3.58;;;0.95;;
59306;SDS011;47983;53.016;-2.260;2023-05-07T13:11:12;3.72;;;1.45;;
59306;SDS011;47983;53.016;-2.260;2023-05-07T13:13:40;5.15;;;1.10;;
59306;SDS011;47983;53.016;-2.260;2023-05-07T13:16:11;4.15;;;1.05;;
59306;SDS011;47983;53.016;-2.260;2023-05-07T13:18:39;1.20;;;0.85;;
59306;SDS011;47983;53.016;-2.260;2023-05-07T13:21:16;4.88;;;1.15;;
59306;SDS011;47983;53.016;-2.260;2023-05-07T13:23:44;4.13;;;1.38;;
59306;SDS011;47983;53.016;-2.260;2023-05-07T13:26:11;3.70;;;1.20;;
59306;SDS011;47983;53.016;-2.260;2023-05-07T13:28:55;3.47;;;1.30;;
59306;SDS011;47983;53.016;-2.260;2023-05-07T13:31:23;4.78;;;1.20;;
59306;SDS011;47983;53.016;-2.260;2023-05-07T13:33:54;4.38;;;1.33;;
59306;SDS011;47983;53.016;-2.260;2023-05-07T13:36:23;2.17;;;1.00;;
59306;SDS011;47983;53.016;-2.260;2023-05-07T13:38:53;4.70;;;0.93;;
59306;SDS011;47983;53.016;-2.260;2023-05-07T13:41:26;5.80;;;1.15;;
59306;SDS011;47983;53.016;-2.260;2023-05-07T13:43:55;4.22;;;1.10;;
59306;SDS011;47983;53.016;-2.260;2023-05-07T13:46:23;3.22;;;0.90;;
59306;SDS011;47983;53.016;-2.260;2023-05-07T13:48:51;4.15;;;1.25;;
59306;SDS011;47983;53.016;-2.260;2023-05-07T13:51:18;2.72;;;1.00;;
59306;SDS011;47983;53.016;-2.260;2023-05-07T13:53:46;3.55;;;1.05;;
59306;SDS011;47983;53.016;-2.260;2023-05-07T13:56:14;4.85;;;1.00;;
59306;SDS011;47983;53.016;-2.260;2023-05-07T13:58:42;5.20;;;1.52;;
59306;SDS011;47983;53.016;-2.260;2023-05-07T14:01:25;6.13;;;1.13;;
59306;SDS011;47983;53.016;-2.260;2023-05-07T14:03:53;3.28;;;1.17;;
59306;SDS011;47983;53.016;-2.260;2023-05-07T14:06:22;2.75;;;0.88;;
59306;SDS011;47983;53.016;-2.260;2023-05-07T14:08:50;1.48;;;0.80;;
59306;SDS011;47983;53.016;-2.260;2023-05-07T14:11:18;2.58;;;1.10;;
59306;SDS011;47983;53.016;-2.260;2023-05-07T14:13:46;1.35;;;0.85;;
59306;SDS011;47983;53.016;-2.260;2023-05-07T14:16:13;4.55;;;1.10;;
59306;SDS011;47983;53.016;-2.260;2023-05-07T14:18:41;3.67;;;1.10;;
59306;SDS011;47983;53.016;-2.260;2023-05-07T14:21:09;2.58;;;1.25;;
59306;SDS011;47983;53.016;-2.260;2023-05-07T14:23:37;4.45;;;1.20;;
59306;SDS011;47983;53.016;-2.260;2023-05-07T14:26:05;2.60;;;1.08;;
59306;SDS011;47983;53.016;-2.260;2023-05-07T14:28:33;2.45;;;1.05;;
59306;SDS011;47983;53.016;-2.260;2023-05-07T14:31:00;7.18;;;0.90;;
59306;SDS011;47983;53.016;-2.260;2023-05-07T14:33:28;4.30;;;1.00;;
59306;SDS011;47983;53.016;-2.260;2023-05-07T14:35:56;6.32;;;0.90;;
59306;SDS011;47983;53.016;-2.260;2023-05-07T14:38:23;3.67;;;1.10;;
59306;SDS011;47983;53.016;-2.260;2023-05-07T14:40:51;2.78;;;1.05;;
59306;SDS011;47983;53.016;-2.260;2023-05-07T14:43:22;1.73;;;0.80;;
59306;SDS011;47983;53.016;-2.260;2023-05-07T14:45:50;2.92;;;0.80;;
59306;SDS011;47983;53.016;-2.260;2023-05-07T14:48:19;3.33;;;0.90;;
59306;SDS011;47983;53.016;-2.260;2023-05-07T14:50:47;3.42;;;0.80;;
59306;SDS011;47983;53.016;-2.260;2023-05-07T14:53:15;1.70;;;0.75;;
59306;SDS011;47983;53.016;-2.260;2023-05-07T14:55:43;3.45;;;0.80;;
59306;SDS011;47983;53.016;-2.260;2023-05-07T14:58:10;3.40;;;0.90;;
59306;SDS011;47983;53.016;-2.260;2023-05-07T15:00:38;4.38;;;0.90;;
59306;SDS011;47983;53.016;-2.260;2023-05-07T15:03:09;1.55;;;0.60;;
59306;SDS011;47983;53.016;-2.260;2023-05-07T15:05:43;2.15;;;0.98;;